createdAt,value
2022-08-25T00:00:21.701Z,73.71
2022-08-25T00:02:54.936Z,73.28
2022-08-25T00:05:26.163Z,73.87
2022-08-25T00:07:54.785Z,73.66
2022-08-25T00:10:21.686Z,73.60
2022-08-25T00:12:55.304Z,73.43
2022-08-25T00:15:23.881Z,73.69
2022-08-25T00:17:51.574Z,73.45
2022-08-25T00:20:18.378Z,73.26
2022-08-25T00:22:45.321Z,73.69
2022-08-25T00:25:12.752Z,73.32
2022-08-25T00:27:39.505Z,73.93
2022-08-25T00:30:07.657Z,73.73
2022-08-25T00:32:34.317Z,73.61
2022-08-25T00:35:01.161Z,74.65
2022-08-25T00:37:27.987Z,74.74
2022-08-25T00:39:57.012Z,74.82
2022-08-25T00:42:26.307Z,74.88
2022-08-25T00:44:53.804Z,74.53
2022-08-25T00:47:20.615Z,74.60
2022-08-25T00:49:54.184Z,75.82
2022-08-25T00:52:27.963Z,75.74
2022-08-25T00:55:08.309Z,75.85
2022-08-25T00:57:45.888Z,75.40
2022-08-25T01:00:41.052Z,75.76
2022-08-25T01:03:07.902Z,75.59
2022-08-25T01:05:35.735Z,76.05
2022-08-25T01:08:06.281Z,76.32
2022-08-25T01:10:37.298Z,76.26
2022-08-25T01:13:16.718Z,76.25
2022-08-25T01:15:48.871Z,76.21
2022-08-25T01:18:16.315Z,76.40
2022-08-25T01:20:43.721Z,75.65
2022-08-25T01:23:10.693Z,75.85
2022-08-25T01:26:07.643Z,76.03
2022-08-25T01:28:36.050Z,75.68
2022-08-25T01:31:05.047Z,75.34
2022-08-25T01:33:51.226Z,75.10
2022-08-25T01:36:20.269Z,75.49
2022-08-25T01:38:46.982Z,75.18
2022-08-25T01:41:40.217Z,74.96
2022-08-25T01:44:12.413Z,75.22
2022-08-25T01:46:43.567Z,75.85
2022-08-25T01:49:10.633Z,77.26
2022-08-25T01:52:11.053Z,77.57
2022-08-25T01:54:38.226Z,77.31
2022-08-25T01:57:05.471Z,77.67
2022-08-25T01:59:32.312Z,79.03
2022-08-25T02:02:00.176Z,79.62
2022-08-25T02:04:32.059Z,80.44
2022-08-25T02:07:01.749Z,80.83
2022-08-25T02:09:29.507Z,80.80
2022-08-25T02:11:59.115Z,80.66
2022-08-25T02:14:26.203Z,80.84
2022-08-25T02:16:54.852Z,80.52
2022-08-25T02:19:24.623Z,80.41
2022-08-25T02:21:51.957Z,79.88
2022-08-25T02:24:18.824Z,80.67
2022-08-25T02:26:46.051Z,80.45
2022-08-25T02:29:13.102Z,80.45
2022-08-25T02:31:40.509Z,80.58
2022-08-25T02:34:08.713Z,79.88
2022-08-25T02:36:38.073Z,79.81
2022-08-25T02:39:09.944Z,79.46
2022-08-25T02:41:37.041Z,79.64
2022-08-25T02:44:06.581Z,80.09
2022-08-25T02:46:34.214Z,80.24
2022-08-25T02:49:01.455Z,80.49
2022-08-25T02:51:30.276Z,81.05
2022-08-25T02:53:59.224Z,81.08
2022-08-25T02:56:26.302Z,81.17
2022-08-25T02:58:53.309Z,81.39
2022-08-25T03:01:20.923Z,81.11
2022-08-25T03:03:52.357Z,80.56
2022-08-25T03:06:25.462Z,81.01
2022-08-25T03:08:53.355Z,81.04
2022-08-25T03:11:21.053Z,81.05
2022-08-25T03:13:51.032Z,81.35
2022-08-25T03:16:19.235Z,81.17
2022-08-25T03:18:46.574Z,80.46
2022-08-25T03:21:15.775Z,81.47
2022-08-25T03:23:44.381Z,81.51
2022-08-25T03:26:30.010Z,82.13
2022-08-25T03:28:57.315Z,82.27
2022-08-25T03:31:27.701Z,82.51
2022-08-25T03:33:55.155Z,82.42
2022-08-25T03:36:22.028Z,82.56
2022-08-25T03:38:48.760Z,82.69
2022-08-25T03:41:28.080Z,82.71
2022-08-25T03:43:57.010Z,82.49
2022-08-25T03:46:38.004Z,82.23
2022-08-25T03:49:08.232Z,83.04
2022-08-25T03:51:40.447Z,83.44
2022-08-25T03:54:09.324Z,83.27
2022-08-25T03:56:36.421Z,83.21
2022-08-25T03:59:03.653Z,83.67
2022-08-25T04:01:30.420Z,83.61
2022-08-25T04:03:57.082Z,83.60
2022-08-25T04:06:23.649Z,83.66
2022-08-25T04:08:52.642Z,83.96
2022-08-25T04:11:22.778Z,83.73
2022-08-25T04:13:51.896Z,82.99
2022-08-25T04:16:29.705Z,81.98
2022-08-25T04:18:58.767Z,79.68
2022-08-25T04:21:26.341Z,79.64
2022-08-25T04:23:55.193Z,83.06
2022-08-25T04:26:33.275Z,84.19
2022-08-25T04:29:03.376Z,83.81
2022-08-25T04:31:31.954Z,82.76
2022-08-25T04:34:02.391Z,81.84
2022-08-25T04:36:29.954Z,83.79
2022-08-25T04:38:56.705Z,84.36
2022-08-25T04:41:25.363Z,84.61
2022-08-25T04:43:53.221Z,84.64
2022-08-25T04:46:25.108Z,84.77
2022-08-25T04:48:53.917Z,84.54
2022-08-25T04:51:27.696Z,84.99
2022-08-25T04:53:54.332Z,85.05
2022-08-25T04:56:26.214Z,84.90
2022-08-25T04:58:55.671Z,84.57
2022-08-25T05:01:25.840Z,84.93
2022-08-25T05:04:00.616Z,85.22
2022-08-25T05:06:28.893Z,85.40
2022-08-25T05:08:57.782Z,85.33
2022-08-25T05:11:26.383Z,84.68
2022-08-25T05:13:56.988Z,84.67
2022-08-25T05:16:26.735Z,84.40
2022-08-25T05:18:54.612Z,84.05
2022-08-25T05:21:27.688Z,83.68
2022-08-25T05:23:59.994Z,83.32
2022-08-25T05:26:30.803Z,82.46
2022-08-25T05:28:58.960Z,80.64
2022-08-25T05:31:26.977Z,81.30
2022-08-25T05:33:55.205Z,80.98
2022-08-25T05:36:24.968Z,80.85
2022-08-25T05:38:51.812Z,80.50
2022-08-25T05:41:25.375Z,80.40
2022-08-25T05:43:52.145Z,80.14
2022-08-25T05:46:21.239Z,80.31
2022-08-25T05:48:49.926Z,80.10
2022-08-25T05:51:17.319Z,79.87
2022-08-25T05:53:48.593Z,79.43
2022-08-25T05:56:15.844Z,78.80
2022-08-25T05:58:44.821Z,77.94
2022-08-25T06:01:43.459Z,78.76
2022-08-25T06:04:12.158Z,77.51
2022-08-25T06:06:39.606Z,77.57
2022-08-25T06:09:09.426Z,76.45
2022-08-25T06:11:41.822Z,77.41
2022-08-25T06:14:09.825Z,76.07
2022-08-25T06:16:38.959Z,75.23
2022-08-25T06:19:08.631Z,76.08
2022-08-25T06:21:37.398Z,75.94
2022-08-25T06:24:04.833Z,75.69
2022-08-25T06:26:31.772Z,74.95
2022-08-25T06:28:58.445Z,75.53
2022-08-25T06:31:25.152Z,74.35
2022-08-25T06:33:52.858Z,74.53
2022-08-25T06:36:20.537Z,75.38
2022-08-25T06:38:48.626Z,74.82
2022-08-25T06:41:16.604Z,74.46
2022-08-25T06:43:48.147Z,74.14
2022-08-25T06:46:21.448Z,73.87
2022-08-25T06:48:49.801Z,72.86
2022-08-25T06:51:20.298Z,72.27
2022-08-25T06:53:49.632Z,72.10
2022-08-25T06:56:19.501Z,73.03
2022-08-25T06:58:47.961Z,72.35
2022-08-25T07:01:27.107Z,72.08
2022-08-25T07:03:58.090Z,71.69
2022-08-25T07:06:26.650Z,71.42
2022-08-25T07:08:53.897Z,71.37
2022-08-25T07:11:21.469Z,70.34
2022-08-25T07:13:49.411Z,70.24
2022-08-25T07:16:18.741Z,69.74
2022-08-25T07:18:47.168Z,69.43
2022-08-25T07:21:15.565Z,69.13
2022-08-25T07:23:43.081Z,68.18
2022-08-25T07:26:38.533Z,67.36
2022-08-25T07:29:19.694Z,67.98
2022-08-25T07:31:46.753Z,66.99
2022-08-25T07:34:34.067Z,67.78
2022-08-25T07:37:05.802Z,65.75
2022-08-25T07:39:34.368Z,64.95
2022-08-25T07:42:02.254Z,64.26
2022-08-25T07:44:29.214Z,63.86
2022-08-25T07:46:56.753Z,64.69
2022-08-25T07:49:26.630Z,64.51
2022-08-25T07:52:05.079Z,63.80
2022-08-25T07:54:37.656Z,63.20
2022-08-25T07:57:09.980Z,62.70
2022-08-25T07:59:42.356Z,63.73
2022-08-25T08:02:17.973Z,61.99
2022-08-25T08:04:48.745Z,62.10
2022-08-25T08:07:17.846Z,61.66
2022-08-25T08:09:44.819Z,60.96
2022-08-25T08:12:15.196Z,59.37
2022-08-25T08:14:44.900Z,58.30
2022-08-25T08:17:13.599Z,56.88
2022-08-25T08:19:44.814Z,57.94
2022-08-25T08:22:15.615Z,56.86
2022-08-25T08:24:54.476Z,56.05
2022-08-25T08:27:23.111Z,57.44
2022-08-25T08:29:50.143Z,56.36
2022-08-25T08:32:17.970Z,57.27
2022-08-25T08:34:47.056Z,55.16
2022-08-25T08:37:18.600Z,56.60
2022-08-25T08:39:48.079Z,56.62
2022-08-25T08:42:43.014Z,56.67
2022-08-25T08:45:28.619Z,55.25
2022-08-25T08:48:43.159Z,55.58
2022-08-25T08:51:33.187Z,55.03
2022-08-25T08:54:18.540Z,54.77
2022-08-25T08:56:50.535Z,55.91
2022-08-25T08:59:30.306Z,53.66
2022-08-25T09:02:04.190Z,51.31
2022-08-25T09:04:57.928Z,51.49
2022-08-25T09:07:42.332Z,51.07
2022-08-25T09:10:12.333Z,51.09
2022-08-25T09:13:11.890Z,50.67
2022-08-25T09:16:11.208Z,50.34
2022-08-25T09:19:23.885Z,49.98
2022-08-25T09:22:35.053Z,50.76
2022-08-25T09:25:18.715Z,50.53
2022-08-25T09:28:09.476Z,49.81
2022-08-25T09:30:57.858Z,48.58
2022-08-25T09:33:27.592Z,48.16
2022-08-25T09:35:57.296Z,47.29
2022-08-25T09:38:26.246Z,48.08
2022-08-25T09:41:00.909Z,47.93
2022-08-25T09:43:28.228Z,48.98
2022-08-25T09:46:23.316Z,49.33
2022-08-25T09:49:11.737Z,47.99
2022-08-25T09:51:42.775Z,47.92
2022-08-25T09:54:12.825Z,47.99
2022-08-25T09:57:00.553Z,47.72
2022-08-25T09:59:37.015Z,47.51
2022-08-25T10:02:27.101Z,46.83
2022-08-25T10:04:54.923Z,47.58
2022-08-25T10:07:51.784Z,47.19
2022-08-25T10:10:33.895Z,47.25
2022-08-25T10:13:15.545Z,46.70
2022-08-25T10:16:20.538Z,47.06
2022-08-25T10:19:08.388Z,47.74
2022-08-25T10:21:38.736Z,48.34
2022-08-25T10:24:09.578Z,48.31
2022-08-25T10:26:44.039Z,47.03
2022-08-25T10:29:42.732Z,46.47
2022-08-25T10:32:16.867Z,46.51
2022-08-25T10:34:55.441Z,46.01
2022-08-25T10:38:03.991Z,45.82
2022-08-25T10:40:49.622Z,46.44
2022-08-25T10:43:49.918Z,47.99
2022-08-25T10:46:42.820Z,46.82
2022-08-25T10:49:25.432Z,46.44
2022-08-25T10:52:37.721Z,45.77
2022-08-25T10:55:25.778Z,44.20
2022-08-25T10:58:04.517Z,46.05
2022-08-25T11:00:54.616Z,45.22
2022-08-25T11:03:52.881Z,45.18
2022-08-25T11:06:41.601Z,45.42
2022-08-25T11:09:18.594Z,47.45
2022-08-25T11:12:19.236Z,46.51
2022-08-25T11:14:56.217Z,45.55
2022-08-25T11:17:50.094Z,48.05
2022-08-25T11:20:38.732Z,45.60
2022-08-25T11:23:25.819Z,44.85
2022-08-25T11:26:01.552Z,45.41
2022-08-25T11:28:57.515Z,44.89
2022-08-25T11:31:27.676Z,43.07
2022-08-25T11:33:56.772Z,43.94
2022-08-25T11:36:40.596Z,45.71
2022-08-25T11:39:34.661Z,45.03
2022-08-25T11:42:43.081Z,46.40
2022-08-25T11:45:34.360Z,46.39
2022-08-25T11:48:37.111Z,45.64
2022-08-25T11:51:09.731Z,47.07
2022-08-25T11:53:43.996Z,46.86
2022-08-25T11:56:34.693Z,45.74
2022-08-25T11:59:02.177Z,46.20
2022-08-25T12:01:40.205Z,47.20
2022-08-25T12:04:42.172Z,46.07
2022-08-25T12:07:11.316Z,46.93
2022-08-25T12:09:55.768Z,46.18
2022-08-25T12:12:56.270Z,45.88
2022-08-25T12:15:35.059Z,46.02
2022-08-25T12:18:36.769Z,45.25
2022-08-25T12:21:06.141Z,44.59
2022-08-25T12:23:44.863Z,45.16
2022-08-25T12:26:38.149Z,44.49
2022-08-25T12:29:29.455Z,44.58
2022-08-25T12:32:27.606Z,42.85
2022-08-25T12:35:29.832Z,42.63
2022-08-25T12:38:15.934Z,42.21
2022-08-25T12:40:42.762Z,41.23
2022-08-25T12:44:30.965Z,41.77
2022-08-25T12:47:26.991Z,41.60
2022-08-25T12:50:32.710Z,41.33
2022-08-25T12:53:24.515Z,40.66
2022-08-25T12:56:07.746Z,41.66
2022-08-25T12:59:23.664Z,41.82
2022-08-25T13:02:33.516Z,41.57
2022-08-25T13:05:20.771Z,40.97
2022-08-25T13:08:17.951Z,40.74
2022-08-25T13:11:13.856Z,41.61
2022-08-25T13:14:18.725Z,40.94
2022-08-25T13:16:59.168Z,39.71
2022-08-25T13:19:35.028Z,40.57
2022-08-25T13:22:16.065Z,38.90
2022-08-25T13:24:50.674Z,38.50
2022-08-25T13:27:27.523Z,38.63
2022-08-25T13:29:59.951Z,36.61
2022-08-25T13:32:39.678Z,35.50
2022-08-25T13:35:28.895Z,34.25
2022-08-25T13:38:19.526Z,32.38
2022-08-25T13:40:46.433Z,35.11
2022-08-25T13:43:15.029Z,32.78
2022-08-25T13:45:48.188Z,33.22
2022-08-25T13:48:39.277Z,32.46
2022-08-25T13:51:22.437Z,32.38
2022-08-25T13:54:03.116Z,31.98
2022-08-25T13:56:40.954Z,32.78
2022-08-25T13:59:25.741Z,32.05
2022-08-25T14:01:55.971Z,31.88
2022-08-25T14:04:50.480Z,31.35
2022-08-25T14:07:21.414Z,31.03
2022-08-25T14:09:55.023Z,30.04
2022-08-25T14:12:44.896Z,29.37
2022-08-25T14:15:17.857Z,29.96
2022-08-25T14:18:08.727Z,30.84
2022-08-25T14:20:37.836Z,33.17
2022-08-25T14:23:16.234Z,32.73
2022-08-25T14:25:47.436Z,35.46
2022-08-25T14:28:19.990Z,32.60
2022-08-25T14:30:55.658Z,33.83
2022-08-25T14:33:29.684Z,32.22
2022-08-25T14:36:02.597Z,33.46
2022-08-25T14:38:29.548Z,34.30
2022-08-25T14:40:59.180Z,34.91
2022-08-25T14:43:31.566Z,34.37
2022-08-25T14:46:08.221Z,36.59
2022-08-25T14:48:44.983Z,37.21
2022-08-25T14:51:15.070Z,36.54
2022-08-25T14:53:43.407Z,37.22
2022-08-25T14:56:10.639Z,36.94
2022-08-25T14:58:48.444Z,36.07
2022-08-25T15:01:28.841Z,35.99
2022-08-25T15:04:10.379Z,36.45
2022-08-25T15:06:43.521Z,35.51
2022-08-25T15:09:16.613Z,35.73
2022-08-25T15:11:51.392Z,36.15
2022-08-25T15:14:28.393Z,38.36
2022-08-25T15:17:00.441Z,36.92
2022-08-25T15:19:28.831Z,38.87
2022-08-25T15:21:58.259Z,37.91
2022-08-25T15:24:27.746Z,37.60
2022-08-25T15:27:02.050Z,37.76
2022-08-25T15:29:32.490Z,37.67
2022-08-25T15:32:00.586Z,38.91
2022-08-25T15:34:27.826Z,38.80
2022-08-25T15:36:56.239Z,37.63
2022-08-25T15:39:22.922Z,38.86
2022-08-25T15:41:51.638Z,38.18
2022-08-25T15:44:19.385Z,38.11
2022-08-25T15:46:49.463Z,38.28
2022-08-25T15:49:20.912Z,38.26
2022-08-25T15:51:54.962Z,39.08
2022-08-25T15:54:24.063Z,38.94
2022-08-25T15:56:55.335Z,39.32
2022-08-25T15:59:22.920Z,38.87
2022-08-25T16:01:54.989Z,39.31
2022-08-25T16:04:25.273Z,40.22
2022-08-25T16:06:52.538Z,40.11
2022-08-25T16:09:22.871Z,40.79
2022-08-25T16:11:56.506Z,40.22
2022-08-25T16:14:25.493Z,41.00
2022-08-25T16:16:58.422Z,39.53
2022-08-25T16:19:35.718Z,39.83
2022-08-25T16:22:02.609Z,39.73
2022-08-25T16:24:33.859Z,39.44
2022-08-25T16:27:11.483Z,39.19
2022-08-25T16:29:44.339Z,40.21
2022-08-25T16:32:13.858Z,39.44
2022-08-25T16:34:42.487Z,39.98
2022-08-25T16:37:09.374Z,38.07
2022-08-25T16:39:37.113Z,39.35
2022-08-25T16:42:06.703Z,37.23
2022-08-25T16:44:34.353Z,40.79
2022-08-25T16:47:01.611Z,35.82
2022-08-25T16:49:28.298Z,34.36
2022-08-25T16:51:57.453Z,32.40
2022-08-25T16:54:45.263Z,30.50
2022-08-25T16:57:12.704Z,32.62
2022-08-25T16:59:39.772Z,29.46
2022-08-25T17:02:06.705Z,28.21
2022-08-25T17:04:33.471Z,29.26
2022-08-25T17:07:00.492Z,28.95
2022-08-25T17:09:29.541Z,29.86
2022-08-25T17:11:57.316Z,32.24
2022-08-25T17:14:24.509Z,28.95
2022-08-25T17:16:54.680Z,31.02
2022-08-25T17:19:28.243Z,31.16
2022-08-25T17:21:55.155Z,30.52
2022-08-25T17:24:29.367Z,31.76
2022-08-25T17:26:58.528Z,33.16
2022-08-25T17:29:25.228Z,34.10
2022-08-25T17:31:53.359Z,35.66
2022-08-25T17:34:23.382Z,36.20
2022-08-25T17:36:51.143Z,36.88
2022-08-25T17:39:19.669Z,37.17
2022-08-25T17:41:49.190Z,38.42
2022-08-25T17:44:17.194Z,39.60
2022-08-25T17:46:47.102Z,39.16
2022-08-25T17:49:14.906Z,39.67
2022-08-25T17:51:42.617Z,40.46
2022-08-25T17:54:09.857Z,41.09
2022-08-25T17:56:37.911Z,41.31
2022-08-25T17:59:04.478Z,41.86
2022-08-25T18:01:34.573Z,42.63
2022-08-25T18:04:01.570Z,42.18
2022-08-25T18:06:30.944Z,43.32
2022-08-25T18:09:01.505Z,43.47
2022-08-25T18:11:30.178Z,43.97
2022-08-25T18:13:57.547Z,44.47
2022-08-25T18:16:25.702Z,44.87
2022-08-25T18:18:54.712Z,45.58
2022-08-25T18:21:24.551Z,46.09
2022-08-25T18:23:51.761Z,46.41
2022-08-25T18:26:24.743Z,46.61
2022-08-25T18:28:52.418Z,46.61
2022-08-25T18:31:19.863Z,47.03
2022-08-25T18:33:46.865Z,47.46
2022-08-25T18:36:13.899Z,47.40
2022-08-25T18:39:00.289Z,48.21
2022-08-25T18:41:34.239Z,48.72
2022-08-25T18:44:00.970Z,48.09
2022-08-25T18:46:27.723Z,48.14
2022-08-25T18:48:55.593Z,48.28
2022-08-25T18:51:23.505Z,48.32
2022-08-25T18:53:51.410Z,48.34
2022-08-25T18:56:26.116Z,48.78
2022-08-25T18:58:52.719Z,49.07
2022-08-25T19:01:20.527Z,49.17
2022-08-25T19:03:49.125Z,49.43
2022-08-25T19:06:17.558Z,50.41
2022-08-25T19:08:46.256Z,50.95
2022-08-25T19:11:12.981Z,50.73
2022-08-25T19:13:40.555Z,51.43
2022-08-25T19:16:20.607Z,51.91
2022-08-25T19:18:49.076Z,51.67
2022-08-25T19:21:22.699Z,52.17
2022-08-25T19:23:50.565Z,52.82
2022-08-25T19:26:18.234Z,53.20
2022-08-25T19:28:48.656Z,52.42
2022-08-25T19:31:24.923Z,52.37
2022-08-25T19:33:53.611Z,53.27
2022-08-25T19:36:30.309Z,53.75
2022-08-25T19:39:00.437Z,54.05
2022-08-25T19:41:31.337Z,54.32
2022-08-25T19:43:59.452Z,54.49
2022-08-25T19:46:35.312Z,54.67
2022-08-25T19:49:26.256Z,55.04
2022-08-25T19:51:56.391Z,54.60
2022-08-25T19:54:31.283Z,54.28
2022-08-25T19:56:59.263Z,53.98
2022-08-25T19:59:42.490Z,55.10
2022-08-25T20:02:16.819Z,55.64
2022-08-25T20:04:50.244Z,55.90
2022-08-25T20:07:23.946Z,55.35
2022-08-25T20:09:53.375Z,55.15
2022-08-25T20:12:24.326Z,55.62
2022-08-25T20:14:53.380Z,56.20
2022-08-25T20:17:23.627Z,56.04
2022-08-25T20:20:09.749Z,56.96
2022-08-25T20:22:38.005Z,57.04
2022-08-25T20:25:17.741Z,58.01
2022-08-25T20:30:29.867Z,58.35
2022-08-25T20:32:58.163Z,58.48
2022-08-25T20:35:27.528Z,58.70
2022-08-25T20:37:58.112Z,58.68
2022-08-25T20:40:27.751Z,58.98
2022-08-25T20:42:58.472Z,59.10
2022-08-25T20:45:25.851Z,58.75
2022-08-25T20:47:52.955Z,59.06
2022-08-25T20:50:20.378Z,58.46
2022-08-25T20:52:48.512Z,59.59
2022-08-25T20:55:15.500Z,58.57
2022-08-25T20:57:46.144Z,59.44
2022-08-25T21:00:14.276Z,59.91
2022-08-25T21:02:42.641Z,60.03
2022-08-25T21:05:09.548Z,60.74
2022-08-25T21:07:36.216Z,60.58
2022-08-25T21:10:14.533Z,61.02
2022-08-25T21:12:42.330Z,61.04
2022-08-25T21:15:10.509Z,60.75
2022-08-25T21:17:37.496Z,59.88
2022-08-25T21:20:24.688Z,59.95
2022-08-25T21:22:53.320Z,60.50
2022-08-25T21:25:20.849Z,60.25
2022-08-25T21:27:47.927Z,60.18
2022-08-25T21:30:14.898Z,60.28
2022-08-25T21:32:53.147Z,60.16
2022-08-25T21:35:23.021Z,60.70
2022-08-25T21:37:53.111Z,60.66
2022-08-25T21:40:21.771Z,60.54
2022-08-25T21:42:49.048Z,60.81
2022-08-25T21:45:15.825Z,60.84
2022-08-25T21:47:42.568Z,61.55
2022-08-25T21:50:11.813Z,61.69
2022-08-25T21:52:39.099Z,62.31
2022-08-25T21:55:08.335Z,63.00
2022-08-25T21:57:43.850Z,63.26
2022-08-25T22:00:12.673Z,63.15
2022-08-25T22:02:39.357Z,63.29
2022-08-25T22:05:09.294Z,64.33
2022-08-25T22:07:41.759Z,64.19
2022-08-25T22:10:16.707Z,63.96
2022-08-25T22:12:45.171Z,62.75
2022-08-25T22:15:15.513Z,63.21
2022-08-25T22:17:42.477Z,63.14
2022-08-25T22:20:10.255Z,63.87
2022-08-25T22:22:37.012Z,63.52
2022-08-25T22:25:05.142Z,62.97
2022-08-25T22:27:32.880Z,62.90
2022-08-25T22:30:00.718Z,62.98
2022-08-25T22:32:27.530Z,63.33
2022-08-25T22:34:54.194Z,64.57
2022-08-25T22:37:20.805Z,65.10
2022-08-25T22:39:48.636Z,64.95
2022-08-25T22:42:15.675Z,65.21
2022-08-25T22:44:42.585Z,65.54
2022-08-25T22:47:10.541Z,65.78
2022-08-25T22:49:39.286Z,66.10
2022-08-25T22:52:07.157Z,65.06
2022-08-25T22:54:36.733Z,65.17
2022-08-25T22:57:06.738Z,65.98
2022-08-25T22:59:34.300Z,65.22
2022-08-25T23:02:01.158Z,64.69
2022-08-25T23:04:27.866Z,64.33
2022-08-25T23:06:54.578Z,64.60
2022-08-25T23:09:21.347Z,65.04
2022-08-25T23:11:48.397Z,64.74
2022-08-25T23:14:19.050Z,64.83
2022-08-25T23:16:45.955Z,64.66
2022-08-25T23:19:31.826Z,65.43
2022-08-25T23:22:16.269Z,65.61
2022-08-25T23:24:51.618Z,65.68
2022-08-25T23:27:20.968Z,65.88
2022-08-25T23:29:50.035Z,65.76
2022-08-25T23:32:18.570Z,65.61
2022-08-25T23:34:46.570Z,66.27
2022-08-25T23:37:15.035Z,66.07
2022-08-25T23:39:45.375Z,66.31
2022-08-25T23:42:12.118Z,66.31
2022-08-25T23:44:38.697Z,65.59
2022-08-25T23:47:07.005Z,66.17
2022-08-25T23:49:33.913Z,65.67
2022-08-25T23:52:01.231Z,66.41
2022-08-25T23:54:31.625Z,66.10
2022-08-25T23:56:59.332Z,67.10
2022-08-25T23:59:26.017Z,67.34
